sensor_id;sensor_type;location;lat;lon;timestamp;pressure;altitude;pressure_sealevel;temperature;humidity
66486;BME280;53303;47.476;8.084;2022-07-05T00:00:09;96827.56;;;23.63;54.68
66486;BME280;53303;47.476;8.084;2022-07-05T00:02:35;96826.03;;;23.62;54.90
66486;BME280;53303;47.476;8.084;2022-07-05T00:05:03;96818.19;;;23.60;54.81
66486;BME280;53303;47.476;8.084;2022-07-05T00:07:28;96810.56;;;23.55;54.90
66486;BME280;53303;47.476;8.084;2022-07-05T00:09:56;96823.53;;;23.64;54.85
66486;BME280;53303;47.476;8.084;2022-07-05T00:12:24;96826.56;;;23.66;54.84
66486;BME280;53303;47.476;8.084;2022-07-05T00:14:50;96819.97;;;23.63;55.17
66486;BME280;53303;47.476;8.084;2022-07-05T00:17:16;96827.31;;;23.66;55.05
66486;BME280;53303;47.476;8.084;2022-07-05T00:19:42;96819.19;;;23.63;54.85
66486;BME280;53303;47.476;8.084;2022-07-05T00:22:07;96818.44;;;23.62;55.28
66486;BME280;53303;47.476;8.084;2022-07-05T00:24:35;96814.88;;;23.62;55.22
66486;BME280;53303;47.476;8.084;2022-07-05T00:27:01;96817.66;;;23.62;55.27
66486;BME280;53303;47.476;8.084;2022-07-05T00:29:27;96800.91;;;23.50;55.18
66486;BME280;53303;47.476;8.084;2022-07-05T00:31:53;96814.38;;;23.63;55.26
66486;BME280;53303;47.476;8.084;2022-07-05T00:34:18;96810.09;;;23.62;55.37
66486;BME280;53303;47.476;8.084;2022-07-05T00:36:44;96800.16;;;23.55;55.40
66486;BME280;53303;47.476;8.084;2022-07-05T00:39:09;96810.09;;;23.62;55.36
66486;BME280;53303;47.476;8.084;2022-07-05T00:41:35;96807.78;;;23.61;55.49
66486;BME280;53303;47.476;8.084;2022-07-05T00:44:09;96805.28;;;23.63;55.56
66486;BME280;53303;47.476;8.084;2022-07-05T00:46:36;96807.53;;;23.59;55.52
66486;BME280;53303;47.476;8.084;2022-07-05T00:49:03;96806.53;;;23.62;55.67
66486;BME280;53303;47.476;8.084;2022-07-05T00:51:34;96805.97;;;23.52;56.00
66486;BME280;53303;47.476;8.084;2022-07-05T00:54:01;96806.00;;;23.57;56.26
66486;BME280;53303;47.476;8.084;2022-07-05T00:56:27;96801.94;;;23.53;56.05
66486;BME280;53303;47.476;8.084;2022-07-05T00:58:52;96814.59;;;23.54;56.25
66486;BME280;53303;47.476;8.084;2022-07-05T01:01:18;96817.38;;;23.54;56.42
66486;BME280;53303;47.476;8.084;2022-07-05T01:03:46;96821.19;;;23.56;56.32
66486;BME280;53303;47.476;8.084;2022-07-05T01:06:12;96816.63;;;23.53;56.24
66486;BME280;53303;47.476;8.084;2022-07-05T01:08:40;96809.78;;;23.54;56.31
66486;BME280;53303;47.476;8.084;2022-07-05T01:11:08;96803.44;;;23.54;56.23
66486;BME280;53303;47.476;8.084;2022-07-05T01:13:36;96773.44;;;23.32;56.10
66486;BME280;53303;47.476;8.084;2022-07-05T01:16:02;96785.13;;;23.42;56.39
66486;BME280;53303;47.476;8.084;2022-07-05T01:18:28;96802.69;;;23.53;56.28
66486;BME280;53303;47.476;8.084;2022-07-05T01:21:00;96811.31;;;23.55;56.24
66486;BME280;53303;47.476;8.084;2022-07-05T01:23:31;96811.06;;;23.53;56.03
66486;BME280;53303;47.476;8.084;2022-07-05T01:25:59;96820.91;;;23.54;56.17
66486;BME280;53303;47.476;8.084;2022-07-05T01:28:28;96807.72;;;23.49;56.14
66486;BME280;53303;47.476;8.084;2022-07-05T01:30:57;96816.63;;;23.53;56.24
66486;BME280;53303;47.476;8.084;2022-07-05T01:33:30;96809.72;;;23.43;56.28
66486;BME280;53303;47.476;8.084;2022-07-05T01:35:58;96808.47;;;23.44;56.36
66486;BME280;53303;47.476;8.084;2022-07-05T01:38:25;96816.06;;;23.49;56.26
66486;BME280;53303;47.476;8.084;2022-07-05T01:40:51;96793.50;;;23.42;56.38
66486;BME280;53303;47.476;8.084;2022-07-05T01:43:21;96819.91;;;23.52;56.28
66486;BME280;53303;47.476;8.084;2022-07-05T01:45:50;96801.34;;;23.43;56.13
66486;BME280;53303;47.476;8.084;2022-07-05T01:48:19;96802.13;;;23.44;56.19
66486;BME280;53303;47.476;8.084;2022-07-05T01:50:50;96810.50;;;23.49;56.11
66486;BME280;53303;47.476;8.084;2022-07-05T01:53:27;96816.59;;;23.48;56.17
66486;BME280;53303;47.476;8.084;2022-07-05T01:55:58;96787.38;;;23.32;56.18
66486;BME280;53303;47.476;8.084;2022-07-05T01:58:25;96820.13;;;23.48;56.24
66486;BME280;53303;47.476;8.084;2022-07-05T02:00:54;96806.41;;;23.39;56.16
66486;BME280;53303;47.476;8.084;2022-07-05T02:03:21;96810.69;;;23.40;55.99
66486;BME280;53303;47.476;8.084;2022-07-05T02:05:47;96819.88;;;23.46;56.00
66486;BME280;53303;47.476;8.084;2022-07-05T02:08:14;96820.63;;;23.47;55.96
66486;BME280;53303;47.476;8.084;2022-07-05T02:10:40;96817.09;;;23.46;55.97
66486;BME280;53303;47.476;8.084;2022-07-05T02:13:06;96817.34;;;23.48;55.96
66486;BME280;53303;47.476;8.084;2022-07-05T02:15:36;96810.25;;;23.47;55.88
66486;BME280;53303;47.476;8.084;2022-07-05T02:18:03;96806.94;;;23.43;55.83
66486;BME280;53303;47.476;8.084;2022-07-05T02:20:34;96814.56;;;23.48;55.52
66486;BME280;53303;47.476;8.084;2022-07-05T02:23:02;96808.97;;;23.43;55.48
66486;BME280;53303;47.476;8.084;2022-07-05T02:25:28;96813.25;;;23.44;55.26
66486;BME280;53303;47.476;8.084;2022-07-05T02:27:53;96819.59;;;23.44;55.26
66486;BME280;53303;47.476;8.084;2022-07-05T02:30:19;96819.59;;;23.44;55.34
66486;BME280;53303;47.476;8.084;2022-07-05T02:32:47;96808.94;;;23.37;55.24
66486;BME280;53303;47.476;8.084;2022-07-05T02:35:13;96817.06;;;23.41;55.11
66486;BME280;53303;47.476;8.084;2022-07-05T02:37:39;96824.13;;;23.42;55.00
66486;BME280;53303;47.476;8.084;2022-07-05T02:40:10;96821.31;;;23.36;54.82
66486;BME280;53303;47.476;8.084;2022-07-05T02:42:36;96828.19;;;23.41;54.62
66486;BME280;53303;47.476;8.084;2022-07-05T02:45:02;96824.59;;;23.34;54.41
66486;BME280;53303;47.476;8.084;2022-07-05T02:47:32;96830.44;;;23.36;54.32
66486;BME280;53303;47.476;8.084;2022-07-05T02:49:59;96841.06;;;23.38;54.27
66486;BME280;53303;47.476;8.084;2022-07-05T02:52:24;96834.97;;;23.34;54.16
66486;BME280;53303;47.476;8.084;2022-07-05T02:54:50;96839.00;;;23.33;54.58
66486;BME280;53303;47.476;8.084;2022-07-05T02:57:15;96837.00;;;23.33;54.35
66486;BME280;53303;47.476;8.084;2022-07-05T02:59:41;96842.84;;;23.35;54.40
66486;BME280;53303;47.476;8.084;2022-07-05T03:02:06;96842.84;;;23.35;54.44
66486;BME280;53303;47.476;8.084;2022-07-05T03:04:32;96846.63;;;23.32;54.14
66486;BME280;53303;47.476;8.084;2022-07-05T03:06:59;96836.50;;;23.35;54.15
66486;BME280;53303;47.476;8.084;2022-07-05T03:09:25;96823.47;;;23.21;54.13
66486;BME280;53303;47.476;8.084;2022-07-05T03:11:52;96819.94;;;23.20;53.86
66486;BME280;53303;47.476;8.084;2022-07-05T03:14:18;96844.59;;;23.33;54.00
66486;BME280;53303;47.476;8.084;2022-07-05T03:16:43;96842.03;;;23.29;53.97
66486;BME280;53303;47.476;8.084;2022-07-05T03:19:10;96825.50;;;23.20;53.75
66486;BME280;53303;47.476;8.084;2022-07-05T03:21:36;96834.38;;;23.24;54.03
66486;BME280;53303;47.476;8.084;2022-07-05T03:24:03;96815.34;;;23.17;53.95
66486;BME280;53303;47.476;8.084;2022-07-05T03:26:31;96825.06;;;23.27;53.92
66486;BME280;53303;47.476;8.084;2022-07-05T03:28:56;96830.09;;;23.23;53.96
66486;BME280;53303;47.476;8.084;2022-07-05T03:31:22;96850.88;;;23.28;53.75
66486;BME280;53303;47.476;8.084;2022-07-05T03:33:47;96847.34;;;23.27;53.73
66486;BME280;53303;47.476;8.084;2022-07-05T03:36:13;96842.97;;;23.21;53.78
66486;BME280;53303;47.476;8.084;2022-07-05T03:38:38;96855.94;;;23.29;53.72
66486;BME280;53303;47.476;8.084;2022-07-05T03:41:03;96835.63;;;23.17;53.80
66486;BME280;53303;47.476;8.084;2022-07-05T03:43:29;96847.28;;;23.22;53.89
66486;BME280;53303;47.476;8.084;2022-07-05T03:45:54;96865.81;;;23.25;53.83
66486;BME280;53303;47.476;8.084;2022-07-05T03:48:21;96865.03;;;23.24;53.69
66486;BME280;53303;47.476;8.084;2022-07-05T03:50:46;96863.50;;;23.23;53.82
66486;BME280;53303;47.476;8.084;2022-07-05T03:53:12;96868.31;;;23.23;53.78
66486;BME280;53303;47.476;8.084;2022-07-05T03:55:40;96850.28;;;23.12;53.89
66486;BME280;53303;47.476;8.084;2022-07-05T03:58:09;96864.00;;;23.22;53.86
66486;BME280;53303;47.476;8.084;2022-07-05T04:00:35;96867.28;;;23.20;53.60
66486;BME280;53303;47.476;8.084;2022-07-05T04:03:00;96864.44;;;23.14;53.56
66486;BME280;53303;47.476;8.084;2022-07-05T04:05:26;96864.44;;;23.14;53.72
66486;BME280;53303;47.476;8.084;2022-07-05T04:07:53;96867.53;;;23.22;53.77
66486;BME280;53303;47.476;8.084;2022-07-05T04:10:19;96872.84;;;23.20;53.79
66486;BME280;53303;47.476;8.084;2022-07-05T04:12:46;96884.81;;;23.26;53.83
66486;BME280;53303;47.476;8.084;2022-07-05T04:15:12;96871.31;;;23.19;54.00
66486;BME280;53303;47.476;8.084;2022-07-05T04:17:52;96878.94;;;23.24;54.01
66486;BME280;53303;47.476;8.084;2022-07-05T04:20:18;96882.50;;;23.25;53.90
66486;BME280;53303;47.476;8.084;2022-07-05T04:22:46;96871.53;;;23.15;53.97
66486;BME280;53303;47.476;8.084;2022-07-05T04:25:14;96872.81;;;23.14;53.69
66486;BME280;53303;47.476;8.084;2022-07-05T04:27:50;96877.66;;;23.19;53.69
66486;BME280;53303;47.476;8.084;2022-07-05T04:30:18;96877.88;;;23.16;53.68
66486;BME280;53303;47.476;8.084;2022-07-05T04:32:44;96880.44;;;23.19;53.81
66486;BME280;53303;47.476;8.084;2022-07-05T04:35:10;96869.75;;;23.12;53.78
66486;BME280;53303;47.476;8.084;2022-07-05T04:37:36;96872.53;;;23.12;53.70
66486;BME280;53303;47.476;8.084;2022-07-05T04:40:07;96889.28;;;23.18;53.75
66486;BME280;53303;47.476;8.084;2022-07-05T04:42:33;96874.75;;;23.08;54.03
66486;BME280;53303;47.476;8.084;2022-07-05T04:44:59;96883.41;;;23.10;53.91
66486;BME280;53303;47.476;8.084;2022-07-05T04:47:25;96898.13;;;23.16;53.82
66486;BME280;53303;47.476;8.084;2022-07-05T04:49:54;96898.88;;;23.17;53.80
66486;BME280;53303;47.476;8.084;2022-07-05T04:52:23;96894.81;;;23.12;53.72
66486;BME280;53303;47.476;8.084;2022-07-05T04:54:51;96890.72;;;23.08;53.87
66486;BME280;53303;47.476;8.084;2022-07-05T04:57:17;96891.47;;;23.08;53.80
66486;BME280;53303;47.476;8.084;2022-07-05T04:59:42;96905.94;;;23.12;53.95
66486;BME280;53303;47.476;8.084;2022-07-05T05:02:08;96901.13;;;23.13;53.84
66486;BME280;53303;47.476;8.084;2022-07-05T05:04:33;96889.41;;;23.03;53.83
66486;BME280;53303;47.476;8.084;2022-07-05T05:06:59;96909.50;;;23.13;53.95
66486;BME280;53303;47.476;8.084;2022-07-05T05:09:24;96904.16;;;23.09;54.08
66486;BME280;53303;47.476;8.084;2022-07-05T05:11:50;96905.38;;;23.08;53.92
66486;BME280;53303;47.476;8.084;2022-07-05T05:14:16;96911.03;;;23.14;53.94
66486;BME280;53303;47.476;8.084;2022-07-05T05:16:41;96919.38;;;23.14;53.95
66486;BME280;53303;47.476;8.084;2022-07-05T05:19:07;96912.28;;;23.13;53.96
66486;BME280;53303;47.476;8.084;2022-07-05T05:21:33;96898.03;;;23.05;54.07
66486;BME280;53303;47.476;8.084;2022-07-05T05:23:58;96900.81;;;23.05;54.24
66486;BME280;53303;47.476;8.084;2022-07-05T05:26:24;96914.56;;;23.14;54.34
66486;BME280;53303;47.476;8.084;2022-07-05T05:28:52;96913.53;;;23.12;54.21
66486;BME280;53303;47.476;8.084;2022-07-05T05:31:18;96898.22;;;23.02;53.92
66486;BME280;53303;47.476;8.084;2022-07-05T05:33:44;96902.03;;;23.04;54.13
66486;BME280;53303;47.476;8.084;2022-07-05T05:36:10;96908.16;;;23.08;54.00
66486;BME280;53303;47.476;8.084;2022-07-05T05:38:36;96905.91;;;23.07;54.12
66486;BME280;53303;47.476;8.084;2022-07-05T05:41:04;96918.88;;;23.15;54.24
66486;BME280;53303;47.476;8.084;2022-07-05T05:43:29;96909.22;;;23.11;54.60
66486;BME280;53303;47.476;8.084;2022-07-05T05:45:55;96912.00;;;23.11;54.47
66486;BME280;53303;47.476;8.084;2022-07-05T05:48:20;96922.91;;;23.14;54.31
66486;BME280;53303;47.476;8.084;2022-07-05T05:50:46;96922.16;;;23.14;54.45
66486;BME280;53303;47.476;8.084;2022-07-05T05:53:12;96919.31;;;23.08;54.37
66486;BME280;53303;47.476;8.084;2022-07-05T05:55:38;96931.53;;;23.16;54.55
66486;BME280;53303;47.476;8.084;2022-07-05T06:00:39;96928.72;;;23.11;54.67
66486;BME280;53303;47.476;8.084;2022-07-05T06:03:05;96940.66;;;23.17;54.42
66486;BME280;53303;47.476;8.084;2022-07-05T06:05:30;96927.44;;;23.12;54.31
66486;BME280;53303;47.476;8.084;2022-07-05T06:07:56;96933.34;;;23.19;54.06
66486;BME280;53303;47.476;8.084;2022-07-05T06:10:24;96951.09;;;23.22;53.50
66486;BME280;53303;47.476;8.084;2022-07-05T06:12:53;96938.44;;;23.21;53.52
66486;BME280;53303;47.476;8.084;2022-07-05T06:15:19;96943.50;;;23.23;53.37
66486;BME280;53303;47.476;8.084;2022-07-05T06:17:46;96934.81;;;23.15;53.24
66486;BME280;53303;47.476;8.084;2022-07-05T06:20:14;96944.28;;;23.23;53.12
66486;BME280;53303;47.476;8.084;2022-07-05T06:22:40;96954.91;;;23.25;53.17
66486;BME280;53303;47.476;8.084;2022-07-05T06:25:06;96941.97;;;23.22;53.02
66486;BME280;53303;47.476;8.084;2022-07-05T06:27:37;96950.06;;;23.19;53.09
66486;BME280;53303;47.476;8.084;2022-07-05T06:30:03;96956.69;;;23.28;52.99
66486;BME280;53303;47.476;8.084;2022-07-05T06:32:31;96946.31;;;23.23;52.94
66486;BME280;53303;47.476;8.084;2022-07-05T06:34:57;96937.66;;;23.21;52.76
66486;BME280;53303;47.476;8.084;2022-07-05T06:37:22;96949.88;;;23.29;52.81
66486;BME280;53303;47.476;8.084;2022-07-05T06:39:49;96944.31;;;23.29;52.85
66486;BME280;53303;47.476;8.084;2022-07-05T06:42:15;96954.00;;;23.33;53.02
66486;BME280;53303;47.476;8.084;2022-07-05T06:44:42;96955.72;;;23.31;52.35
66486;BME280;53303;47.476;8.084;2022-07-05T06:47:09;96959.81;;;23.35;52.22
66486;BME280;53303;47.476;8.084;2022-07-05T06:49:35;96946.38;;;23.34;52.14
66486;BME280;53303;47.476;8.084;2022-07-05T06:52:00;96960.34;;;23.40;52.01
66486;BME280;53303;47.476;8.084;2022-07-05T06:54:25;96947.41;;;23.36;52.00
66486;BME280;53303;47.476;8.084;2022-07-05T06:56:51;96941.03;;;23.30;52.00
66486;BME280;53303;47.476;8.084;2022-07-05T06:59:18;96953.75;;;23.37;51.78
66486;BME280;53303;47.476;8.084;2022-07-05T07:01:46;96964.72;;;23.46;51.47
66486;BME280;53303;47.476;8.084;2022-07-05T07:04:11;96963.72;;;23.49;51.21
66486;BME280;53303;47.476;8.084;2022-07-05T07:06:37;96963.72;;;23.49;51.26
66486;BME280;53303;47.476;8.084;2022-07-05T07:09:05;96957.88;;;23.47;51.03
66486;BME280;53303;47.476;8.084;2022-07-05T07:11:48;96925.78;;;23.26;51.21
66486;BME280;53303;47.476;8.084;2022-07-05T07:14:15;96965.31;;;23.56;51.28
66486;BME280;53303;47.476;8.084;2022-07-05T07:16:41;96948.28;;;23.48;51.10
66486;BME280;53303;47.476;8.084;2022-07-05T07:19:07;96961.53;;;23.59;50.64
66486;BME280;53303;47.476;8.084;2022-07-05T07:21:32;96960.00;;;23.58;50.78
66486;BME280;53303;47.476;8.084;2022-07-05T07:23:57;96961.03;;;23.61;50.76
66486;BME280;53303;47.476;8.084;2022-07-05T07:26:23;96963.34;;;23.62;50.69
66486;BME280;53303;47.476;8.084;2022-07-05T07:28:48;96951.38;;;23.56;50.56
66486;BME280;53303;47.476;8.084;2022-07-05T07:31:13;96962.63;;;23.67;50.47
66486;BME280;53303;47.476;8.084;2022-07-05T07:33:39;96928.47;;;23.41;50.69
66486;BME280;53303;47.476;8.084;2022-07-05T07:36:04;96950.38;;;23.59;50.77
66486;BME280;53303;47.476;8.084;2022-07-05T07:38:30;96952.41;;;23.59;50.80
66486;BME280;53303;47.476;8.084;2022-07-05T07:40:55;96965.41;;;23.67;50.75
66486;BME280;53303;47.476;8.084;2022-07-05T07:43:21;96981.16;;;23.76;50.86
66486;BME280;53303;47.476;8.084;2022-07-05T07:45:49;96965.94;;;23.71;50.99
66486;BME280;53303;47.476;8.084;2022-07-05T07:48:15;96966.69;;;23.72;50.69
66486;BME280;53303;47.476;8.084;2022-07-05T07:50:40;96979.47;;;23.84;50.83
66486;BME280;53303;47.476;8.084;2022-07-05T07:53:05;96956.59;;;23.74;50.81
66486;BME280;53303;47.476;8.084;2022-07-05T07:55:33;96969.59;;;23.83;50.63
66486;BME280;53303;47.476;8.084;2022-07-05T07:57:59;96967.84;;;23.86;51.02
66486;BME280;53303;47.476;8.084;2022-07-05T08:00:29;96978.53;;;23.93;50.62
66486;BME280;53303;47.476;8.084;2022-07-05T08:02:54;96963.06;;;23.92;50.84
66486;BME280;53303;47.476;8.084;2022-07-05T08:05:20;96970.47;;;24.01;50.78
66486;BME280;53303;47.476;8.084;2022-07-05T08:07:45;96957.31;;;24.01;50.44
66486;BME280;53303;47.476;8.084;2022-07-05T08:10:10;96953.25;;;24.02;50.52
66486;BME280;53303;47.476;8.084;2022-07-05T08:12:36;96956.06;;;24.08;50.58
66486;BME280;53303;47.476;8.084;2022-07-05T08:15:02;96957.63;;;24.14;50.34
66486;BME280;53303;47.476;8.084;2022-07-05T08:17:27;96968.28;;;24.16;50.54
66486;BME280;53303;47.476;8.084;2022-07-05T08:19:53;96964.50;;;24.19;50.35
66486;BME280;53303;47.476;8.084;2022-07-05T08:22:37;96964.75;;;24.21;50.41
66486;BME280;53303;47.476;8.084;2022-07-05T08:25:02;96968.06;;;24.25;50.18
66486;BME280;53303;47.476;8.084;2022-07-05T08:27:28;96967.09;;;24.28;50.28
66486;BME280;53303;47.476;8.084;2022-07-05T08:29:53;96967.34;;;24.30;50.15
66486;BME280;53303;47.476;8.084;2022-07-05T08:32:19;96971.44;;;24.35;50.12
66486;BME280;53303;47.476;8.084;2022-07-05T08:34:44;96965.56;;;24.33;49.68
66486;BME280;53303;47.476;8.084;2022-07-05T08:37:10;96963.56;;;24.33;49.71
66486;BME280;53303;47.476;8.084;2022-07-05T08:39:36;96956.22;;;24.42;49.61
66486;BME280;53303;47.476;8.084;2022-07-05T08:42:02;96975.84;;;24.53;49.54
66486;BME280;53303;47.476;8.084;2022-07-05T08:44:29;96967.25;;;24.57;49.26
66486;BME280;53303;47.476;8.084;2022-07-05T08:46:56;96970.56;;;24.61;49.33
66486;BME280;53303;47.476;8.084;2022-07-05T08:49:26;96965.72;;;24.61;48.88
66486;BME280;53303;47.476;8.084;2022-07-05T08:51:54;96972.09;;;24.67;48.96
66486;BME280;53303;47.476;8.084;2022-07-05T08:54:20;96945.97;;;24.70;48.58
66486;BME280;53303;47.476;8.084;2022-07-05T08:56:46;96938.63;;;24.67;49.57
66486;BME280;53303;47.476;8.084;2022-07-05T08:59:12;96939.59;;;24.64;48.66
66486;BME280;53303;47.476;8.084;2022-07-05T09:01:41;96938.56;;;24.56;45.19
66486;BME280;53303;47.476;8.084;2022-07-05T09:04:07;96949.16;;;24.46;42.55
66486;BME280;53303;47.476;8.084;2022-07-05T09:06:37;96938.69;;;24.30;41.36
66486;BME280;53303;47.476;8.084;2022-07-05T09:09:03;96951.31;;;24.20;41.59
66486;BME280;53303;47.476;8.084;2022-07-05T09:11:42;96951.50;;;24.05;41.53
66486;BME280;53303;47.476;8.084;2022-07-05T09:14:24;96954.19;;;23.93;41.42
66486;BME280;53303;47.476;8.084;2022-07-05T09:16:50;96946.03;;;23.84;41.71
66486;BME280;53303;47.476;8.084;2022-07-05T09:19:16;96948.75;;;23.79;41.59
66486;BME280;53303;47.476;8.084;2022-07-05T09:21:42;96942.91;;;23.76;41.82
66486;BME280;53303;47.476;8.084;2022-07-05T09:24:09;96945.94;;;23.73;41.62
66486;BME280;53303;47.476;8.084;2022-07-05T09:29:09;96947.16;;;23.66;41.53
66486;BME280;53303;47.476;8.084;2022-07-05T09:31:37;96958.81;;;23.70;41.51
66486;BME280;53303;47.476;8.084;2022-07-05T09:34:06;96960.59;;;23.68;41.22
66486;BME280;53303;47.476;8.084;2022-07-05T09:39:14;96928.28;;;23.50;41.31
66486;BME280;53303;47.476;8.084;2022-07-05T09:41:39;96937.19;;;23.54;41.36
66486;BME280;53303;47.476;8.084;2022-07-05T09:44:04;96940.22;;;23.56;41.50
66486;BME280;53303;47.476;8.084;2022-07-05T09:46:31;96940.72;;;23.54;41.66
66486;BME280;53303;47.476;8.084;2022-07-05T09:48:59;96941.00;;;23.56;41.68
66486;BME280;53303;47.476;8.084;2022-07-05T09:51:25;96938.66;;;23.49;41.77
66486;BME280;53303;47.476;8.084;2022-07-05T09:53:53;96946.25;;;23.49;41.99
66486;BME280;53303;47.476;8.084;2022-07-05T09:56:19;96937.09;;;23.43;42.18
66486;BME280;53303;47.476;8.084;2022-07-05T09:58:45;96945.94;;;23.41;42.12
66486;BME280;53303;47.476;8.084;2022-07-05T10:03:56;96948.91;;;23.32;42.05
66486;BME280;53303;47.476;8.084;2022-07-05T10:06:23;96936.63;;;23.18;42.27
66486;BME280;53303;47.476;8.084;2022-07-05T10:08:50;96939.91;;;23.16;42.27
66486;BME280;53303;47.476;8.084;2022-07-05T10:11:20;96946.72;;;23.15;42.01
66486;BME280;53303;47.476;8.084;2022-07-05T10:13:53;96948.97;;;23.11;42.10
66486;BME280;53303;47.476;8.084;2022-07-05T10:16:21;96943.59;;;23.08;42.18
66486;BME280;53303;47.476;8.084;2022-07-05T10:18:51;96942.59;;;23.05;42.20
66486;BME280;53303;47.476;8.084;2022-07-05T10:21:18;96931.03;;;22.92;42.32
66486;BME280;53303;47.476;8.084;2022-07-05T10:23:48;96943.53;;;23.02;42.42
66486;BME280;53303;47.476;8.084;2022-07-05T10:26:16;96937.97;;;23.02;42.47
66486;BME280;53303;47.476;8.084;2022-07-05T10:28:51;96931.84;;;22.98;42.46
66486;BME280;53303;47.476;8.084;2022-07-05T10:31:19;96937.44;;;22.98;42.52
66486;BME280;53303;47.476;8.084;2022-07-05T10:33:45;96931.06;;;22.97;42.34
66486;BME280;53303;47.476;8.084;2022-07-05T10:36:11;96930.31;;;22.97;42.31
66486;BME280;53303;47.476;8.084;2022-07-05T10:38:43;96937.16;;;22.96;42.33
66486;BME280;53303;47.476;8.084;2022-07-05T10:41:17;96951.13;;;23.02;42.50
66486;BME280;53303;47.476;8.084;2022-07-05T10:43:43;96926.25;;;22.92;42.36
66486;BME280;53303;47.476;8.084;2022-07-05T10:46:09;96933.06;;;22.91;42.51
66486;BME280;53303;47.476;8.084;2022-07-05T10:48:35;96934.28;;;22.90;42.38
66486;BME280;53303;47.476;8.084;2022-07-05T10:51:14;96934.03;;;22.88;42.52
66486;BME280;53303;47.476;8.084;2022-07-05T11:06:25;96913.94;;;22.78;42.41
66486;BME280;53303;47.476;8.084;2022-07-05T11:11:26;96926.16;;;22.87;42.56
66486;BME280;53303;47.476;8.084;2022-07-05T11:13:52;96914.75;;;22.85;42.51
66486;BME280;53303;47.476;8.084;2022-07-05T11:16:34;96909.63;;;22.77;42.28
66486;BME280;53303;47.476;8.084;2022-07-05T11:21:37;96907.91;;;22.80;42.26
66486;BME280;53303;47.476;8.084;2022-07-05T11:26:45;96911.72;;;22.83;42.04
66486;BME280;53303;47.476;8.084;2022-07-05T11:32:56;96907.38;;;22.81;41.91
66486;BME280;53303;47.476;8.084;2022-07-05T11:35:11;96879.88;;;22.63;41.89
66486;BME280;53303;47.476;8.084;2022-07-05T11:38:06;96901.00;;;22.75;41.83
66486;BME280;53303;47.476;8.084;2022-07-05T11:40:36;96882.22;;;22.70;41.94
66486;BME280;53303;47.476;8.084;2022-07-05T11:43:03;96899.34;;;22.84;41.81
66486;BME280;53303;47.476;8.084;2022-07-05T11:45:30;96902.38;;;22.86;41.83
66486;BME280;53303;47.476;8.084;2022-07-05T11:47:56;96900.84;;;22.85;41.86
66486;BME280;53303;47.476;8.084;2022-07-05T11:50:27;96898.81;;;22.85;41.74
66486;BME280;53303;47.476;8.084;2022-07-05T11:52:53;96884.59;;;22.77;41.82
66486;BME280;53303;47.476;8.084;2022-07-05T11:55:20;96886.13;;;22.78;42.00
66486;BME280;53303;47.476;8.084;2022-07-05T11:57:51;96896.03;;;22.85;42.00
66486;BME280;53303;47.476;8.084;2022-07-05T12:00:31;96883.59;;;22.80;41.80
66486;BME280;53303;47.476;8.084;2022-07-05T12:02:58;96897.34;;;22.90;41.81
66486;BME280;53303;47.476;8.084;2022-07-05T12:05:31;96887.19;;;22.87;41.75
66486;BME280;53303;47.476;8.084;2022-07-05T12:07:57;96898.09;;;22.90;41.87
66486;BME280;53303;47.476;8.084;2022-07-05T12:10:23;96893.59;;;22.93;41.68
66486;BME280;53303;47.476;8.084;2022-07-05T12:13:07;96871.22;;;22.81;41.51
66486;BME280;53303;47.476;8.084;2022-07-05T12:15:34;96890.31;;;22.94;41.74
66486;BME280;53303;47.476;8.084;2022-07-05T12:18:02;96891.34;;;22.97;41.78
66486;BME280;53303;47.476;8.084;2022-07-05T12:20:29;96892.09;;;22.97;41.81
66486;BME280;53303;47.476;8.084;2022-07-05T12:22:55;96887.28;;;22.92;41.75
66486;BME280;53303;47.476;8.084;2022-07-05T12:25:22;96888.06;;;22.98;41.72
66486;BME280;53303;47.476;8.084;2022-07-05T12:27:50;96887.31;;;22.98;41.57
66486;BME280;53303;47.476;8.084;2022-07-05T12:30:17;96880.69;;;22.95;41.62
66486;BME280;53303;47.476;8.084;2022-07-05T12:38:07;96879.50;;;22.76;41.76
66486;BME280;53303;47.476;8.084;2022-07-05T12:40:33;96889.22;;;22.86;41.78
66486;BME280;53303;47.476;8.084;2022-07-05T12:43:04;96881.84;;;22.83;41.51
66486;BME280;53303;47.476;8.084;2022-07-05T12:45:30;96886.72;;;22.88;41.66
66486;BME280;53303;47.476;8.084;2022-07-05T12:47:57;96878.63;;;22.90;41.44
66486;BME280;53303;47.476;8.084;2022-07-05T12:50:25;96872.09;;;22.93;41.61
66486;BME280;53303;47.476;8.084;2022-07-05T12:55:20;96881.97;;;22.94;41.55
66486;BME280;53303;47.476;8.084;2022-07-05T12:58:05;96854.03;;;22.83;41.50
66486;BME280;53303;47.476;8.084;2022-07-05T13:00:30;96867.78;;;22.92;41.50
66486;BME280;53303;47.476;8.084;2022-07-05T13:02:56;96872.31;;;22.90;41.50
66486;BME280;53303;47.476;8.084;2022-07-05T13:05:23;96876.63;;;22.91;41.28
66486;BME280;53303;47.476;8.084;2022-07-05T13:07:49;96874.34;;;22.89;41.21
66486;BME280;53303;47.476;8.084;2022-07-05T13:10:27;96877.38;;;22.91;41.28
66486;BME280;53303;47.476;8.084;2022-07-05T13:12:57;96880.91;;;22.92;41.19
66486;BME280;53303;47.476;8.084;2022-07-05T13:15:23;96875.84;;;22.90;41.10
66486;BME280;53303;47.476;8.084;2022-07-05T13:17:49;96872.34;;;22.95;41.29
66486;BME280;53303;47.476;8.084;2022-07-05T13:20:17;96882.25;;;22.96;41.18
66486;BME280;53303;47.476;8.084;2022-07-05T13:22:43;96873.13;;;22.96;41.10
66486;BME280;53303;47.476;8.084;2022-07-05T13:25:09;96861.88;;;22.85;41.12
66486;BME280;53303;47.476;8.084;2022-07-05T13:27:38;96866.97;;;22.86;41.13
66486;BME280;53303;47.476;8.084;2022-07-05T13:30:04;96870.06;;;22.94;41.21
66486;BME280;53303;47.476;8.084;2022-07-05T13:32:30;96855.28;;;22.82;41.36
66486;BME280;53303;47.476;8.084;2022-07-05T13:34:57;96871.59;;;22.95;41.19
66486;BME280;53303;47.476;8.084;2022-07-05T13:37:22;96842.56;;;22.75;41.32
66486;BME280;53303;47.476;8.084;2022-07-05T13:39:48;96869.03;;;22.91;41.32
66486;BME280;53303;47.476;8.084;2022-07-05T13:42:16;96864.72;;;22.90;41.28